Time;durP1;ratioP1;P1;durP2;ratioP2;P2;SDS_P1;SDS_P2;PMS_P1;PMS_P2;Temp;Humidity;BMP_temperature;BMP_pressure;BME280_temperature;BME280_humidity;BME280_pressure;Samples;Min_cycle;Max_cycle;Signal;HPM_P1;HPM_P2
2022/08/17 00:00:08;;;;;;;;;18.50;17.25;;;;;22.05;69.58;100708.56;2375187;28;45208;-77
2022/08/17 00:01:46;;;;;;;;;16.75;15.50;;;;;22.06;69.43;100707.56;2375367;28;46137;-77
2022/08/17 00:03:02;;;;;;;;;5.75;1.75;;;;;22.05;69.47;100703.22;2375426;28;45180;-77
2022/08/17 00:04:12;;;;;;;;;18.50;17.25;;;;;22.03;69.40;100703.31;2375042;28;46347;-77
2022/08/17 00:05:23;;;;;;;;;19.50;17.75;;;;;22.03;69.44;100703.31;2375281;28;45216;-77
2022/08/17 00:06:34;;;;;;;;;18.75;17.75;;;;;22.02;69.54;100694.47;2374980;28;46482;-77
2022/08/17 00:07:44;;;;;;;;;18.00;17.00;;;;;22.02;69.63;100690.94;2374629;28;44715;-77
2022/08/17 00:09:01;;;;;;;;;18.00;16.50;;;;;22.02;69.60;100686.44;2374499;28;45341;-77
2022/08/17 00:10:11;;;;;;;;;21.25;17.00;;;;;22.01;69.16;100684.72;2375345;28;45227;-77
2022/08/17 00:12:04;;;;;;;;;21.75;20.75;;;;;22.03;69.56;100696.16;2375165;28;48064;-77
2022/08/17 00:13:49;;;;;;;;;23.50;20.00;;;;;22.01;69.02;100689.22;2375014;28;44729;-77
2022/08/17 00:14:59;;;;;;;;;20.00;19.25;;;;;22.02;69.02;100686.44;2374014;28;46484;-77
2022/08/17 00:16:32;;;;;;;;;24.25;21.25;;;;;21.99;69.02;100681.34;2377201;28;44828;-77
2022/08/17 00:17:49;;;;;;;;;24.00;19.25;;;;;22.01;69.07;100686.53;2376719;28;45388;-77
2022/08/17 00:19:05;;;;;;;;;22.00;16.50;;;;;21.99;69.08;100678.66;2375330;28;44581;-77
2022/08/17 00:20:16;;;;;;;;;22.00;21.25;;;;;22.01;69.27;100683.88;2375143;28;46367;-77
2022/08/17 00:21:27;;;;;;;;;21.25;20.50;;;;;22.00;69.82;100685.69;2375289;28;45213;-77
2022/08/17 00:22:38;;;;;;;;;20.50;18.00;;;;;22.00;69.73;100682.19;2374625;28;45416;-77
2022/08/17 00:23:49;;;;;;;;;21.00;19.75;;;;;22.00;69.63;100690.22;2374839;28;45456;-77
2022/08/17 00:25:16;;;;;;;;;21.75;21.50;;;;;22.01;69.17;100683.88;2374942;28;45706;-77
2022/08/17 00:26:27;;;;;;;;;22.75;20.75;;;;;21.99;69.93;100685.81;2384502;28;45334;-76
2022/08/17 00:27:38;;;;;;;;;26.00;24.75;;;;;22.01;69.40;100686.53;2377701;28;45410;-77
2022/08/17 00:28:48;;;;;;;;;22.00;21.00;;;;;22.00;69.73;100687.53;2375105;28;44832;-77
2022/08/17 00:30:06;;;;;;;;;24.50;24.50;;;;;22.00;69.11;100690.22;2375099;28;45711;-77
2022/08/17 00:31:17;;;;;;;;;25.50;22.50;;;;;22.00;69.58;100679.50;2375226;28;45416;-77
2022/08/17 00:32:27;;;;;;;;;23.75;20.75;;;;;22.00;69.35;100684.88;2374977;28;46439;-77
2022/08/17 00:33:39;;;;;;;;;26.25;22.00;;;;;22.00;69.41;100676.84;2374995;28;44766;-77
2022/08/17 00:34:49;;;;;;;;;19.75;18.25;;;;;21.99;69.80;100677.81;2374752;28;45624;-77
2022/08/17 00:36:00;;;;;;;;;19.00;18.00;;;;;22.00;69.44;100672.31;2375047;28;45390;-77
2022/08/17 00:37:11;;;;;;;;;24.00;21.25;;;;;21.99;69.61;100664.41;2374741;28;45646;-77
2022/08/17 00:38:25;;;;;;;;;20.00;20.00;;;;;22.00;69.20;100666.13;2375004;28;45282;-77
2022/08/17 00:39:54;;;;;;;;;25.00;19.00;;;;;21.98;69.89;100663.56;2374895;28;46534;-77
2022/08/17 00:41:15;;;;;;;;;27.25;22.75;;;;;21.99;69.40;100670.63;2374756;28;44772;-77
2022/08/17 00:42:41;;;;;;;;;23.25;22.75;;;;;21.98;69.68;100668.91;2374871;28;46073;-77
2022/08/17 00:43:58;;;;;;;;;26.50;22.75;;;;;21.98;69.73;100660.03;2375001;28;45243;-77
2022/08/17 00:45:11;;;;;;;;;25.50;21.00;;;;;21.98;69.54;100663.56;2374987;28;45379;-77
2022/08/17 00:46:29;;;;;;;;;21.50;18.75;;;;;21.99;69.71;100665.28;2374925;28;45180;-77
2022/08/17 00:47:40;;;;;;;;;20.50;18.00;;;;;21.98;69.58;100666.25;2374852;28;45267;-77
2022/08/17 00:48:51;;;;;;;;;22.25;18.50;;;;;21.98;70.02;100657.34;2375022;28;44553;-76
2022/08/17 00:50:05;;;;;;;;;20.25;18.75;;;;;21.98;69.17;100668.91;2374876;28;45448;-77
2022/08/17 00:51:18;;;;;;;;;21.00;20.25;;;;;21.98;69.37;100662.72;2374863;28;45552;-77
2022/08/17 00:52:36;;;;;;;;;29.50;21.25;;;;;21.98;69.79;100662.72;2374678;28;46362;-77
2022/08/17 00:53:58;;;;;;;;;27.50;21.50;;;;;21.97;69.71;100667.25;2382750;28;45460;-77
2022/08/17 00:55:09;;;;;;;;;23.00;20.00;;;;;21.97;69.72;100661.03;2377918;28;45386;-77
2022/08/17 00:56:27;;;;;;;;;22.75;18.50;;;;;21.97;69.45;100669.06;2374964;28;44856;-78
2022/08/17 00:57:42;;;;;;;;;26.75;20.50;;;;;21.97;69.62;100672.59;2374830;28;45343;-78
2022/08/17 00:58:54;;;;;;;;;21.00;19.75;;;;;21.96;69.37;100681.56;2375092;28;45270;-78
2022/08/17 01:00:11;;;;;;;;;26.50;21.50;;;;;21.97;69.72;100674.41;2374697;28;45228;-78
2022/08/17 01:01:21;;;;;;;;;23.25;20.00;;;;;21.99;69.19;100669.78;2379289;28;45164;-77
2022/08/17 01:02:38;;;;;;;;;19.75;17.00;;;;;21.96;69.51;100665.53;2374746;28;46283;-77
2022/08/17 01:03:51;;;;;;;;;20.00;20.00;;;;;21.97;69.67;100663.72;2377671;28;45712;-78
2022/08/17 01:05:01;;;;;;;;;20.25;14.50;;;;;21.97;69.70;100667.25;2382289;28;45463;-78
2022/08/17 01:06:13;;;;;;;;;19.50;18.50;;;;;21.96;69.76;100664.66;2374960;28;45237;-78
2022/08/17 01:07:26;;;;;;;;;16.25;14.75;;;;;21.97;69.52;100666.38;2374285;28;45640;-78
2022/08/17 01:08:39;;;;;;;;;16.75;14.25;;;;;21.96;69.14;100670.03;2387203;28;44847;-78
2022/08/17 01:09:50;;;;;;;;;18.50;17.75;;;;;21.94;69.59;100661.28;2387879;28;45680;-78
2022/08/17 01:11:01;;;;;;;;;19.75;17.50;;;;;21.95;69.55;100663.84;2384012;28;45481;-78
2022/08/17 01:12:12;;;;;;;;;14.75;13.75;;;;;21.94;69.70;100672.84;2384158;28;46203;-78
2022/08/17 01:13:24;;;;;;;;;20.50;17.75;;;;;21.94;69.54;100667.47;2393328;28;45225;-78
2022/08/17 01:14:38;;;;;;;;;22.50;20.50;;;;;21.93;69.50;100679.16;2385595;28;45501;-79
2022/08/17 01:15:56;;;;;;;;;17.25;15.50;;;;;21.93;69.92;100673.81;2386573;28;44810;-78
2022/08/17 01:17:07;;;;;;;;;21.75;18.25;;;;;21.94;69.26;100678.19;2376805;28;45436;-77
2022/08/17 01:18:18;;;;;;;;;17.00;14.50;;;;;21.92;69.68;100674.78;2384110;28;45197;-78
2022/08/17 01:19:33;;;;;;;;;19.50;17.75;;;;;21.93;69.54;100684.50;2383416;28;46484;-78
2022/08/17 04:46:15;;;;;;;;;18.50;18.50;;;;;21.52;70.51;100711.81;2919274;23;46491;31
2022/08/17 04:47:25;;;;;;;;;21.00;20.25;;;;;21.52;70.95;100708.28;2361103;28;46757;-78
2022/08/17 04:48:39;;;;;;;;;17.00;17.00;;;;;21.51;70.91;100703.94;2359040;29;44675;-78
2022/08/17 04:49:49;;;;;;;;;23.00;19.00;;;;;21.53;70.49;100710.81;2364302;29;45491;-78
2022/08/17 04:51:00;;;;;;;;;22.75;20.50;;;;;21.53;70.31;100700.13;2357997;29;45384;-79
2022/08/17 04:52:10;;;;;;;;;17.25;17.25;;;;;21.53;70.89;100697.44;2363511;29;46471;-78
2022/08/17 04:53:21;;;;;;;;;17.00;16.50;;;;;21.56;70.38;100693.69;2356308;29;44754;-76
2022/08/17 04:54:31;;;;;;;;;19.75;17.75;;;;;21.55;69.99;100689.31;2361071;29;45492;-76
2022/08/17 04:55:41;;;;;;;;;22.25;18.50;;;;;21.57;70.51;100679.34;2365036;28;44974;-76
2022/08/17 04:56:52;;;;;;;;;20.25;19.00;;;;;21.55;70.14;100674.13;2364276;29;46207;-76
2022/08/17 04:58:03;;;;;;;;;19.25;18.25;;;;;21.56;70.21;100680.31;2365025;29;44757;-75
2022/08/17 04:59:16;;;;;;;;;18.00;16.00;;;;;21.55;70.14;100679.50;2360076;29;46406;-75
2022/08/17 05:00:27;;;;;;;;;22.00;21.50;;;;;21.57;70.48;100682.88;2359410;29;45490;-76
2022/08/17 05:01:40;;;;;;;;;21.25;19.00;;;;;21.56;69.89;100678.50;2362123;29;46192;-75
2022/08/17 05:02:53;;;;;;;;;20.25;19.25;;;;;21.56;70.35;100675.81;2364504;29;45280;-76
2022/08/17 05:04:07;;;;;;;;;20.00;17.50;;;;;21.58;70.04;100681.06;2364381;28;45418;-76
2022/08/17 05:05:35;;;;;;;;;24.25;22.75;;;;;21.56;70.25;100683.84;2361485;29;45236;-76
2022/08/17 05:06:46;;;;;;;;;10.75;9.00;;;;;21.56;69.87;100685.66;2364262;28;45389;-76
2022/08/17 05:07:59;;;;;;;;;26.25;21.25;;;;;21.55;70.47;100684.84;2366448;28;45775;-76
2022/08/17 05:09:09;;;;;;;;;19.50;17.75;;;;;21.55;70.11;100679.50;2373658;28;46580;-76
2022/08/17 05:10:21;;;;;;;;;19.50;18.25;;;;;21.55;70.52;100682.16;2378377;28;45248;-75
2022/08/17 05:11:32;;;;;;;;;21.00;18.75;;;;;21.56;70.42;100680.31;2374646;28;45527;-76
2022/08/17 05:12:42;;;;;;;;;18.50;18.00;;;;;21.54;69.91;100684.94;2374645;28;45365;-76
2022/08/17 05:13:54;;;;;;;;;18.25;16.75;;;;;21.57;70.16;100698.91;2374144;28;45389;-76
2022/08/17 05:15:10;;;;;;;;;17.75;14.75;;;;;21.54;70.25;100691.16;2374541;28;45169;-76
2022/08/17 05:16:22;;;;;;;;;20.00;14.00;;;;;21.55;70.53;100694.69;2372970;28;45543;-76
2022/08/17 05:17:32;;;;;;;;;19.00;13.75;;;;;21.54;70.02;100690.28;2374698;28;45228;-76
2022/08/17 05:18:43;;;;;;;;;23.00;18.50;;;;;21.56;70.12;100697.22;2374746;28;45273;-76
2022/08/17 05:19:53;;;;;;;;;19.75;17.50;;;;;21.58;70.05;100694.44;2374690;28;45211;-76
2022/08/17 05:21:05;;;;;;;;;20.25;18.25;;;;;21.58;70.26;100692.59;2374329;28;46426;-75
2022/08/17 05:22:15;;;;;;;;;20.00;16.25;;;;;21.59;70.66;100696.97;2374843;28;45221;-75
2022/08/17 05:23:27;;;;;;;;;25.00;19.50;;;;;21.61;70.08;100690.66;2374706;28;46253;-75
2022/08/17 05:24:38;;;;;;;;;22.75;18.50;;;;;21.62;70.30;100684.31;2374440;28;44776;-75
2022/08/17 05:25:51;;;;;;;;;22.25;18.00;;;;;21.62;69.84;100685.19;2374141;28;45469;-76
2022/08/17 05:27:01;;;;;;;;;21.00;18.75;;;;;21.62;70.08;100682.50;2374415;28;45244;-75
2022/08/17 05:28:12;;;;;;;;;22.75;21.75;;;;;21.64;70.29;100683.22;2373796;28;45514;-76
2022/08/17 05:29:22;;;;;;;;;20.00;18.25;;;;;21.64;70.27;100683.22;2383546;28;45310;-75
2022/08/17 05:30:34;;;;;;;;;14.50;13.25;;;;;21.65;70.05;100681.41;2381866;28;46558;-75
2022/08/17 05:31:44;;;;;;;;;20.25;19.50;;;;;21.63;69.78;100678.84;2374714;28;45468;-75
2022/08/17 05:33:01;;;;;;;;;21.50;16.50;;;;;21.63;70.05;100672.66;2375188;28;45205;-75
2022/08/17 05:34:11;;;;;;;;;25.75;21.25;;;;;21.61;69.49;100666.59;2372751;28;45307;-76
2022/08/17 05:35:22;;;;;;;;;24.50;19.50;;;;;21.62;69.75;100668.28;2377187;28;45608;-75
2022/08/17 05:36:33;;;;;;;;;21.25;18.75;;;;;21.62;69.43;100668.28;2373826;28;44704;-75
2022/08/17 05:37:43;;;;;;;;;21.00;18.75;;;;;21.62;69.85;100668.28;2373769;28;45992;-75
2022/08/17 05:38:53;;;;;;;;;25.75;19.25;;;;;21.63;69.98;100670.00;2373705;28;44733;-75
2022/08/17 05:40:04;;;;;;;;;19.50;18.50;;;;;21.61;70.02;100663.91;2373781;28;45239;-75
2022/08/17 05:41:15;;;;;;;;;18.75;16.00;;;;;21.61;70.01;100655.91;2373647;28;45438;-75
2022/08/17 05:42:25;;;;;;;;;24.25;22.00;;;;;21.59;69.27;100662.22;2373292;28;45460;-76
2022/08/17 05:43:39;;;;;;;;;24.25;21.00;;;;;21.59;69.55;100664.88;2373991;28;44745;-75
2022/08/17 05:44:50;;;;;;;;;32.75;29.25;;;;;21.58;69.69;100660.50;2373623;28;45626;-76
2022/08/17 05:46:24;;;;;;;;;27.25;25.25;;;;;21.58;69.64;100663.16;2373817;28;44735;-74
2022/08/17 05:47:37;;;;;;;;;35.25;26.75;;;;;21.58;69.52;100667.69;2370856;28;45703;-75
2022/08/17 05:48:56;;;;;;;;;33.00;29.25;;;;;21.56;69.83;100666.94;2376521;28;45458;-75
2022/08/17 05:50:09;;;;;;;;;25.25;23.50;;;;;21.55;69.97;100663.44;2365199;29;46289;-75
2022/08/17 05:51:45;;;;;;;;;26.75;26.25;;;;;21.56;69.74;100669.63;2372754;28;45424;-76
2022/08/17 05:53:02;;;;;;;;;28.75;25.50;;;;;21.55;69.77;100674.13;2364637;28;46407;-75
2022/08/17 05:54:35;;;;;;;;;33.25;28.25;;;;;21.55;69.72;100674.13;2374015;28;45310;-75
2022/08/17 05:56:27;;;;;;;;;36.75;32.00;;;;;21.54;70.12;100672.44;2375616;28;46088;-76
2022/08/17 05:57:43;;;;;;;;;37.00;32.75;;;;;21.54;70.12;100672.44;2375958;28;45589;-75
2022/08/17 05:59:13;;;;;;;;;41.00;33.50;;;;;21.51;70.16;100667.31;2376106;28;46387;-75
2022/08/17 06:00:30;;;;;;;;;38.75;33.00;;;;;21.52;70.15;100669.03;2377107;28;45518;-75
2022/08/17 06:01:57;;;;;;;;;30.50;24.75;;;;;21.53;70.36;100673.38;2383003;28;46497;-75
2022/08/17 06:03:13;;;;;;;;;26.00;22.75;;;;;21.53;69.86;100669.88;2385527;28;44629;-75
2022/08/17 06:05:01;;;;;;;;;22.25;18.75;;;;;21.53;70.10;100673.38;2378414;28;45288;-75
2022/08/17 06:06:35;;;;;;;;;28.50;25.75;;;;;21.54;70.05;100660.88;2375887;28;45413;-75
2022/08/17 06:08:01;;;;;;;;;29.25;27.25;;;;;21.52;70.50;100663.69;2375970;28;46301;-75
2022/08/17 06:09:41;;;;;;;;;32.00;28.25;;;;;21.55;70.12;100660.78;2376199;28;45254;-75
2022/08/17 06:11:21;;;;;;;;;32.00;25.50;;;;;21.56;70.77;100662.44;2378868;28;45410;-75
2022/08/17 06:13:01;;;;;;;;;28.25;27.50;;;;;21.57;70.69;100666.84;2381554;28;44605;-75
2022/08/17 06:14:14;;;;;;;;;20.50;20.25;;;;;21.58;70.79;100676.53;2375955;28;46521;-75
2022/08/17 06:15:43;;;;;;;;;29.25;23.75;;;;;21.61;70.77;100677.28;2375993;28;44599;-75
2022/08/17 06:17:10;;;;;;;;;30.50;27.50;;;;;21.62;70.38;100684.31;2375640;28;46779;-75
2022/08/17 06:18:24;;;;;;;;;31.00;29.50;;;;;21.64;70.60;100687.72;2375842;28;45168;-75
2022/08/17 06:19:41;;;;;;;;;26.00;24.00;;;;;21.66;70.75;100696.47;2375793;28;45530;-75
2022/08/17 06:21:04;;;;;;;;;30.25;29.75;;;;;21.68;70.53;100702.56;2375956;28;45401;-75
2022/08/17 06:22:19;;;;;;;;;17.50;15.50;;;;;21.69;70.79;100698.88;2375986;28;45558;-75
2022/08/17 06:23:39;;;;;;;;;29.00;25.25;;;;;21.70;70.17;100703.28;2376030;28;45220;-75
2022/08/17 06:24:59;;;;;;;;;23.00;19.00;;;;;21.73;70.82;100707.53;2380162;28;45416;-75
2022/08/17 06:26:16;;;;;;;;;30.50;26.75;;;;;21.75;70.53;100708.25;2378799;28;45271;-75
2022/08/17 06:28:03;;;;;;;;;23.50;17.75;;;;;21.79;69.70;100712.38;2375322;28;45494;-75
2022/08/17 06:29:38;;;;;;;;;31.25;28.00;;;;;21.82;70.09;100722.81;2346943;29;45229;-75
2022/08/17 06:30:56;;;;;;;;;17.50;15.75;;;;;21.85;69.51;100729.75;2375706;28;45545;-75
2022/08/17 06:32:09;;;;;;;;;22.25;20.75;;;;;21.88;68.78;100732.19;2375788;28;45268;-75
2022/08/17 06:33:25;;;;;;;;;31.75;25.50;;;;;21.89;69.74;100733.91;2375711;28;46381;-75
2022/08/17 06:34:37;;;;;;;;;25.25;24.25;;;;;21.94;70.17;100729.03;2374838;28;45470;-75
2022/08/17 06:36:27;;;;;;;;;28.75;24.75;;;;;21.99;69.43;100742.88;2375019;28;45614;-75
2022/08/17 06:37:48;;;;;;;;;23.75;23.75;;;;;22.01;70.14;100742.75;2376130;28;45152;-75
2022/08/17 06:39:12;;;;;;;;;23.75;22.00;;;;;22.04;69.42;100747.84;2375589;28;46337;-75
2022/08/17 06:40:34;;;;;;;;;24.25;21.75;;;;;22.06;69.95;100748.56;2375532;28;45172;-75
2022/08/17 06:41:55;;;;;;;;;30.00;25.50;;;;;22.08;69.91;100748.44;2366624;29;46342;-75
2022/08/17 06:43:32;;;;;;;;;24.00;20.75;;;;;22.09;69.52;100739.44;2374227;28;45291;-75
2022/08/17 06:45:13;;;;;;;;;22.75;22.00;;;;;22.10;69.41;100736.63;2375572;28;46537;-75
2022/08/17 06:46:33;;;;;;;;;27.00;23.75;;;;;22.11;69.69;100737.47;2373578;28;45209;-75
2022/08/17 06:47:54;;;;;;;;;17.25;17.25;;;;;22.10;69.70;100736.63;2375664;28;45413;-75
2022/08/17 06:49:15;;;;;;;;;23.75;20.75;;;;;22.11;68.85;100737.47;2375906;28;45240;-75
2022/08/17 06:50:41;;;;;;;;;29.25;24.50;;;;;22.10;69.37;100738.47;2375271;28;46480;-75
2022/08/17 06:52:27;;;;;;;;;22.50;20.50;;;;;22.11;69.36;100740.16;2375242;28;45348;-75
2022/08/17 06:53:44;;;;;;;;;24.00;22.75;;;;;22.12;69.32;100739.19;2366527;28;45527;-75
2022/08/17 06:55:05;;;;;;;;;22.75;20.25;;;;;22.12;69.28;100733.84;2375560;28;44744;-75
2022/08/17 06:56:39;;;;;;;;;20.25;17.75;;;;;22.13;69.97;100738.19;2374825;28;47123;-74
2022/08/17 06:57:56;;;;;;;;;21.25;18.50;;;;;22.13;69.62;100738.19;2375755;28;45426;-75
2022/08/17 06:59:13;;;;;;;;;25.00;19.50;;;;;22.13;69.23;100738.19;2375496;28;45334;-74
2022/08/17 07:00:32;;;;;;;;;19.00;18.00;;;;;22.14;68.31;100742.59;2375357;28;44770;-75
2022/08/17 07:01:45;;;;;;;;;24.25;21.75;;;;;22.15;69.02;100741.59;2375035;28;45366;-75
2022/08/17 07:03:30;;;;;;;;;19.00;16.25;;;;;22.17;68.67;100749.50;2375639;28;44687;-75
2022/08/17 07:04:43;;;;;;;;;22.00;15.50;;;;;22.18;68.04;100744.03;2364127;28;45314;-76
2022/08/17 07:06:01;;;;;;;;;48.00;41.00;;;;;22.20;68.02;100743.91;2375212;28;44640;-75
2022/08/17 07:08:49;;;;;;;;;24.75;24.25;;;;;22.27;68.09;100755.81;2376653;28;45159;-75
2022/08/17 07:10:00;;;;;;;;;28.00;23.00;;;;;22.26;68.36;100749.59;2383975;28;45418;-75
2022/08/17 07:11:14;;;;;;;;;21.75;21.25;;;;;22.31;67.87;100756.38;2377071;28;45413;-74
2022/08/17 07:12:36;;;;;;;;;17.50;17.00;;;;;22.30;67.71;100746.69;2370551;28;45396;-74
2022/08/17 07:14:13;;;;;;;;;24.25;23.00;;;;;22.36;68.15;100757.72;2375453;28;45224;-75
2022/08/17 07:15:37;;;;;;;;;20.00;20.00;;;;;22.38;67.61;100757.56;2379214;28;46399;-75
2022/08/17 07:16:51;;;;;;;;;21.75;18.25;;;;;22.41;68.05;100760.00;2382003;28;45246;-75
2022/08/17 07:18:02;;;;;;;;;23.25;22.25;;;;;22.45;68.09;100757.91;2375512;28;45375;-75
2022/08/17 07:19:15;;;;;;;;;22.75;22.00;;;;;22.48;68.15;100758.50;2375614;28;45233;-75
2022/08/17 07:20:26;;;;;;;;;28.50;22.00;;;;;22.51;68.50;100770.78;2375163;28;46231;-75
2022/08/17 12:05:45;;;;;;;;;37.25;31.75;;;;;24.55;62.58;100889.38;2630650;23;46000;-78
2022/08/17 12:07:11;;;;;;;;;28.00;24.50;;;;;24.61;62.12;100888.81;2383083;28;45555;-74
2022/08/17 12:08:22;;;;;;;;;31.25;28.25;;;;;24.64;61.69;100885.88;2383525;28;46040;-77
2022/08/17 12:09:40;;;;;;;;;27.00;25.75;;;;;24.68;61.78;100887.28;2383822;28;44639;-77
2022/08/17 12:11:10;;;;;;;;;29.75;27.75;;;;;24.75;61.65;100884.00;2382952;28;47406;-77
2022/08/17 12:12:34;;;;;;;;;28.75;27.25;;;;;24.79;61.67;100885.44;2383810;28;45441;-77
2022/08/17 12:13:50;;;;;;;;;27.25;25.25;;;;;24.81;61.17;100884.31;2384434;28;46472;-77
2022/08/17 12:15:06;;;;;;;;;31.00;29.75;;;;;24.86;61.28;100888.41;2383833;28;45307;-77
2022/08/17 12:16:18;;;;;;;;;32.75;30.25;;;;;24.85;61.58;100890.25;2384317;28;45404;-77
2022/08/17 12:17:30;;;;;;;;;30.25;28.75;;;;;24.85;61.15;100887.56;2384061;28;45198;-77
2022/08/17 12:18:52;;;;;;;;;32.00;29.00;;;;;24.86;61.79;100889.28;2374215;28;46620;-77
2022/08/17 12:20:31;;;;;;;;;33.00;30.00;;;;;24.85;60.65;100892.94;2378606;28;45329;-77
2022/08/17 12:21:50;;;;;;;;;28.00;26.00;;;;;24.80;60.55;100898.72;2384133;28;46647;-77
2022/08/17 12:23:15;;;;;;;;;34.25;31.00;;;;;24.79;60.90;100899.72;2383981;28;45485;-77
2022/08/17 12:25:00;;;;;;;;;36.00;30.25;;;;;24.77;61.17;100904.38;2384164;28;45429;-77
2022/08/17 12:26:18;;;;;;;;;31.50;26.75;;;;;24.79;61.07;100906.94;2368889;28;44738;-77
2022/08/17 12:27:32;;;;;;;;;28.50;26.75;;;;;24.77;60.70;100907.06;2384104;28;45511;-77
2022/08/17 12:28:48;;;;;;;;;26.75;25.00;;;;;24.80;60.68;100900.56;2384405;28;45275;-77
2022/08/17 12:30:04;;;;;;;;;29.25;27.25;;;;;24.84;61.16;100897.44;2383742;28;45441;-77
2022/08/17 12:31:17;;;;;;;;;30.00;27.00;;;;;24.87;60.61;100900.84;2374489;28;44656;-77
2022/08/17 12:32:32;;;;;;;;;29.25;28.00;;;;;24.89;60.47;100899.72;2376997;28;46987;-77
2022/08/17 12:33:44;;;;;;;;;31.00;28.75;;;;;24.92;60.57;100896.75;2383981;28;45383;-75
2022/08/17 12:34:55;;;;;;;;;27.00;26.75;;;;;24.95;60.46;100893.78;2373937;28;47416;-75
2022/08/17 12:36:11;;;;;;;;;24.25;23.75;;;;;25.00;60.60;100890.69;2376961;28;45261;-75
2022/08/17 12:37:26;;;;;;;;;32.50;29.00;;;;;25.05;60.55;100895.66;2374096;28;47935;-75
2022/08/17 12:38:37;;;;;;;;;30.00;28.25;;;;;25.09;60.89;100893.53;2377750;28;44819;-75
2022/08/17 12:39:58;;;;;;;;;32.00;30.00;;;;;25.10;60.25;100896.06;2383707;28;45391;-75
2022/08/17 12:41:27;;;;;;;;;29.00;22.25;;;;;25.10;59.92;100895.22;2384461;28;45445;-75
2022/08/17 12:42:40;;;;;;;;;28.00;26.00;;;;;25.09;59.93;100896.22;2384250;28;46482;-75
2022/08/17 12:44:00;;;;;;;;;33.00;30.00;;;;;25.09;60.39;100894.34;2381907;28;44800;-75
2022/08/17 12:45:23;;;;;;;;;36.50;29.25;;;;;25.03;59.88;100886.88;2381203;28;45540;-75
2022/08/17 12:46:57;;;;;;;;;26.75;26.75;;;;;25.00;59.43;100885.31;2383021;28;44711;-75
2022/08/17 12:48:11;;;;;;;;;39.50;31.25;;;;;24.95;59.39;100884.88;2382212;28;45616;-75
2022/08/17 12:49:25;;;;;;;;;34.75;30.00;;;;;24.92;60.80;100879.75;2383429;28;45299;-75
2022/08/17 12:50:44;;;;;;;;;30.25;27.50;;;;;24.90;59.70;100876.38;2382542;28;45467;-75
2022/08/17 12:52:05;;;;;;;;;32.00;29.50;;;;;24.90;60.91;100874.53;2384060;28;45176;-75
2022/08/17 12:53:22;;;;;;;;;31.00;28.50;;;;;24.90;59.69;100879.91;2377372;28;45337;-75
2022/08/17 12:54:41;;;;;;;;;34.75;29.00;;;;;24.86;59.32;100874.97;2384108;28;45294;-75
2022/08/17 12:55:52;;;;;;;;;34.00;31.25;;;;;24.79;59.43;100869.31;2371500;28;48332;-75
2022/08/17 12:57:26;;;;;;;;;21.00;20.50;;;;;24.76;60.82;100875.84;2375851;28;44727;-75
2022/08/17 12:58:52;;;;;;;;;26.00;25.00;;;;;24.77;60.77;100880.19;2377013;28;45696;-75
2022/08/17 13:00:11;;;;;;;;;29.50;28.75;;;;;24.78;60.36;100876.53;2384055;28;44622;-75
2022/08/17 13:01:23;;;;;;;;;29.50;29.50;;;;;24.80;59.80;100879.06;2373568;28;46162;-75
2022/08/17 13:02:57;;;;;;;;;33.50;28.00;;;;;24.84;59.92;100875.13;2367447;28;45176;-75
2022/08/17 13:04:13;;;;;;;;;33.25;28.25;;;;;24.86;60.55;100875.84;2379328;28;46383;-75
2022/08/17 13:05:34;;;;;;;;;29.50;26.50;;;;;24.87;59.92;100865.91;2376012;28;45275;-75
2022/08/17 13:06:50;;;;;;;;;29.50;26.75;;;;;24.88;59.79;100865.78;2378799;28;45457;-75
2022/08/17 13:08:12;;;;;;;;;31.75;28.25;;;;;24.87;59.62;100865.91;2384193;28;45338;-75
2022/08/17 13:09:28;;;;;;;;;26.75;24.50;;;;;24.85;59.34;100871.44;2382573;28;46413;-75
2022/08/17 13:10:39;;;;;;;;;30.50;27.50;;;;;24.84;58.90;100859.00;2382830;28;44788;-75
2022/08/17 13:11:55;;;;;;;;;25.25;23.50;;;;;24.81;59.19;100860.13;2383333;28;46723;-75
2022/08/17 13:13:23;;;;;;;;;31.00;26.50;;;;;24.82;59.11;100863.66;2373503;28;44777;-75
2022/08/17 13:14:34;;;;;;;;;27.25;27.00;;;;;24.84;59.41;100859.00;2378093;28;46457;-75
2022/08/17 13:15:55;;;;;;;;;28.75;23.25;;;;;24.88;58.47;100871.16;2383892;28;45216;-75
2022/08/17 13:17:05;;;;;;;;;28.50;26.75;;;;;24.87;59.56;100858.69;2383719;28;45256;-75
2022/08/17 13:18:35;;;;;;;;;28.25;25.75;;;;;24.91;58.22;100870.88;2383286;28;45296;-75
2022/08/17 13:19:48;;;;;;;;;18.00;18.00;;;;;24.87;57.82;100864.06;2365272;28;47306;-75
2022/08/17 13:20:59;;;;;;;;;23.75;21.75;;;;;24.87;58.05;100871.28;2376468;28;45502;-75
2022/08/17 13:22:11;;;;;;;;;26.50;24.00;;;;;24.84;58.53;100857.13;2383372;28;45512;-75
2022/08/17 13:23:30;;;;;;;;;25.50;21.25;;;;;24.84;58.49;100864.38;2384012;28;44578;-75
2022/08/17 13:24:51;;;;;;;;;24.50;20.75;;;;;24.86;59.36;100861.53;2383667;28;45354;-75
2022/08/17 13:26:05;;;;;;;;;27.25;23.75;;;;;24.87;58.93;100857.84;2383468;28;45467;-75
2022/08/17 13:27:19;;;;;;;;;24.50;23.00;;;;;24.90;59.05;100853.03;2383237;28;46519;-75
2022/08/17 13:28:31;;;;;;;;;22.50;21.50;;;;;24.92;58.31;100861.81;2383159;28;45436;-75
2022/08/17 13:29:44;;;;;;;;;30.50;28.50;;;;;24.94;58.15;100859.00;2383251;28;45335;-75
2022/08/17 13:31:29;;;;;;;;;29.25;25.00;;;;;24.96;58.38;100862.38;2383510;28;45440;-76
2022/08/17 13:32:46;;;;;;;;;24.00;22.25;;;;;24.99;58.25;100861.25;2383770;28;45460;-75
2022/08/17 13:34:15;;;;;;;;;23.00;20.50;;;;;25.04;57.99;100858.97;2383838;28;44721;-75
2022/08/17 13:35:42;;;;;;;;;26.50;25.75;;;;;25.04;57.43;100851.78;2372866;28;48609;-75
2022/08/17 13:38:49;;;;;;;;;22.50;20.50;;;;;25.04;57.01;100848.22;2374536;28;45360;-75
2022/08/17 13:40:06;;;;;;;;;24.00;23.75;;;;;25.04;57.50;100851.78;2373771;28;45453;-76
2022/08/17 13:41:34;;;;;;;;;25.50;23.25;;;;;25.08;57.44;100844.28;2376981;28;45679;-76
2022/08/17 13:42:48;;;;;;;;;24.75;21.00;;;;;25.13;57.49;100836.63;2383882;28;45215;-75
2022/08/17 13:43:59;;;;;;;;;24.50;23.25;;;;;25.15;57.44;100844.53;2372948;28;47996;-76
2022/08/17 13:45:28;;;;;;;;;22.25;21.75;;;;;25.21;57.76;100837.75;2376553;28;45356;-76
2022/08/17 13:46:49;;;;;;;;;21.75;21.75;;;;;25.23;57.74;100844.69;2383554;28;46417;-76
2022/08/17 13:48:13;;;;;;;;;24.25;22.50;;;;;25.29;57.42;100843.22;2382558;28;45977;-79
2022/08/17 13:49:25;;;;;;;;;21.00;20.00;;;;;25.32;57.58;100839.41;2373151;28;46125;-78
2022/08/17 13:50:39;;;;;;;;;22.75;21.75;;;;;25.34;57.78;100835.56;2376509;28;45216;-76
2022/08/17 13:51:50;;;;;;;;;22.50;20.25;;;;;25.37;57.64;100843.34;2372582;28;47728;-78
2022/08/17 13:53:00;;;;;;;;;27.00;24.00;;;;;25.41;56.77;100835.81;2367390;28;45462;-77
2022/08/17 13:54:35;;;;;;;;;22.75;21.50;;;;;25.45;57.65;100828.31;2376191;28;45630;-77
2022/08/17 13:55:54;;;;;;;;;26.50;24.00;;;;;25.46;57.41;100830.03;2382943;28;44839;-77
2022/08/17 13:57:11;;;;;;;;;23.50;21.50;;;;;25.49;57.37;100822.50;2383302;28;45429;-76
2022/08/17 13:58:31;;;;;;;;;22.00;20.25;;;;;25.50;56.65;100818.81;2383466;28;45227;-75
2022/08/17 13:59:46;;;;;;;;;22.25;20.50;;;;;25.53;56.83;100815.00;2383459;28;45456;-76
2022/08/17 14:00:56;;;;;;;;;26.00;21.75;;;;;25.58;56.90;100820.75;2373713;28;45223;-75
2022/08/17 14:02:09;;;;;;;;;23.25;20.25;;;;;25.59;57.15;100813.53;2377233;28;45539;-76
2022/08/17 14:03:19;;;;;;;;;17.50;17.50;;;;;25.60;56.45;100821.47;2373627;28;44745;-75
2022/08/17 14:04:32;;;;;;;;;20.50;19.50;;;;;25.61;56.77;100816.91;2376427;28;46256;-76
2022/08/17 14:05:44;;;;;;;;;19.75;16.75;;;;;25.61;56.62;100817.78;2383249;28;45154;-76
2022/08/17 14:07:18;;;;;;;;;23.75;20.25;;;;;25.61;56.27;100823.16;2383451;28;45307;-75